sensor_id;sensor_type;location;lat;lon;timestamp;pressure;altitude;pressure_sealevel;temperature;humidity
37200;BME280;23096;50.892;16.746;2023-08-30T00:00:31;98332.58;;;14.08;84.64
37200;BME280;23096;50.892;16.746;2023-08-30T00:02:57;98329.36;;;14.07;84.58
37200;BME280;23096;50.892;16.746;2023-08-30T00:05:22;98332.27;;;14.05;84.83
37200;BME280;23096;50.892;16.746;2023-08-30T00:07:48;98338.42;;;14.03;84.69
37200;BME280;23096;50.892;16.746;2023-08-30T00:10:14;98338.30;;;14.02;84.69
37200;BME280;23096;50.892;16.746;2023-08-30T00:12:40;98339.18;;;14.02;84.79
37200;BME280;23096;50.892;16.746;2023-08-30T00:15:06;98335.26;;;14.01;84.66
37200;BME280;23096;50.892;16.746;2023-08-30T00:17:31;98331.38;;;13.99;84.68
37200;BME280;23096;50.892;16.746;2023-08-30T00:19:58;98327.15;;;13.98;84.73
37200;BME280;23096;50.892;16.746;2023-08-30T00:22:23;98325.80;;;13.97;84.72
37200;BME280;23096;50.892;16.746;2023-08-30T00:24:49;98325.73;;;13.96;84.70
37200;BME280;23096;50.892;16.746;2023-08-30T00:27:14;98327.86;;;13.95;84.62
37200;BME280;23096;50.892;16.746;2023-08-30T00:29:40;98323.16;;;13.93;84.56
37200;BME280;23096;50.892;16.746;2023-08-30T00:32:06;98317.41;;;13.91;84.67
37200;BME280;23096;50.892;16.746;2023-08-30T00:34:32;98314.64;;;13.91;84.63
37200;BME280;23096;50.892;16.746;2023-08-30T00:36:57;98314.39;;;13.89;84.69
37200;BME280;23096;50.892;16.746;2023-08-30T00:39:23;98316.84;;;13.89;84.76
37200;BME280;23096;50.892;16.746;2023-08-30T00:41:48;98315.70;;;13.88;84.66
37200;BME280;23096;50.892;16.746;2023-08-30T00:44:14;98309.73;;;13.87;84.62
37200;BME280;23096;50.892;16.746;2023-08-30T00:46:40;98305.16;;;13.85;84.69
37200;BME280;23096;50.892;16.746;2023-08-30T00:49:07;98302.27;;;13.84;84.75
37200;BME280;23096;50.892;16.746;2023-08-30T00:51:33;98300.45;;;13.83;84.69
37200;BME280;23096;50.892;16.746;2023-08-30T00:53:59;98301.75;;;13.81;84.73
37200;BME280;23096;50.892;16.746;2023-08-30T00:56:27;98306.10;;;13.80;84.66
37200;BME280;23096;50.892;16.746;2023-08-30T00:58:53;98306.21;;;13.79;84.65
37200;BME280;23096;50.892;16.746;2023-08-30T01:01:19;98306.82;;;13.77;84.78
37200;BME280;23096;50.892;16.746;2023-08-30T01:03:45;98305.85;;;13.76;84.63
37200;BME280;23096;50.892;16.746;2023-08-30T01:06:12;98303.82;;;13.73;84.79
37200;BME280;23096;50.892;16.746;2023-08-30T01:08:39;98306.17;;;13.71;84.78
37200;BME280;23096;50.892;16.746;2023-08-30T01:14:00;98306.20;;;13.73;84.88
37200;BME280;23096;50.892;16.746;2023-08-30T01:16:30;98307.88;;;13.74;84.64
37200;BME280;23096;50.892;16.746;2023-08-30T01:18:57;98317.30;;;13.75;84.82
37200;BME280;23096;50.892;16.746;2023-08-30T01:21:54;98322.88;;;13.77;84.82
37200;BME280;23096;50.892;16.746;2023-08-30T01:27:25;98338.42;;;13.77;84.64
37200;BME280;23096;50.892;16.746;2023-08-30T01:29:53;98335.27;;;13.78;84.71
37200;BME280;23096;50.892;16.746;2023-08-30T01:32:19;98332.36;;;13.77;84.64
37200;BME280;23096;50.892;16.746;2023-08-30T01:34:49;98331.89;;;13.76;84.64
37200;BME280;23096;50.892;16.746;2023-08-30T01:37:16;98330.04;;;13.75;84.70
37200;BME280;23096;50.892;16.746;2023-08-30T01:39:42;98327.48;;;13.75;84.66
37200;BME280;23096;50.892;16.746;2023-08-30T01:42:09;98327.70;;;13.74;84.69
37200;BME280;23096;50.892;16.746;2023-08-30T01:44:35;98329.08;;;13.74;84.83
37200;BME280;23096;50.892;16.746;2023-08-30T01:47:03;98323.61;;;13.74;84.91
37200;BME280;23096;50.892;16.746;2023-08-30T01:49:30;98316.93;;;13.73;84.65
37200;BME280;23096;50.892;16.746;2023-08-30T01:51:57;98318.58;;;13.74;84.77
37200;BME280;23096;50.892;16.746;2023-08-30T01:54:24;98320.69;;;13.76;84.83
37200;BME280;23096;50.892;16.746;2023-08-30T01:56:50;98320.27;;;13.77;84.80
37200;BME280;23096;50.892;16.746;2023-08-30T01:59:16;98309.36;;;13.78;84.85
37200;BME280;23096;50.892;16.746;2023-08-30T02:01:42;98313.27;;;13.79;84.77
37200;BME280;23096;50.892;16.746;2023-08-30T02:04:07;98310.77;;;13.80;84.81
37200;BME280;23096;50.892;16.746;2023-08-30T02:06:54;98309.27;;;13.82;84.78
37200;BME280;23096;50.892;16.746;2023-08-30T02:09:24;98306.84;;;13.83;84.82
37200;BME280;23096;50.892;16.746;2023-08-30T02:11:53;98303.45;;;13.82;84.93
37200;BME280;23096;50.892;16.746;2023-08-30T02:14:21;98306.92;;;13.81;84.83
37200;BME280;23096;50.892;16.746;2023-08-30T02:16:48;98311.94;;;13.81;84.84
37200;BME280;23096;50.892;16.746;2023-08-30T02:19:18;98313.70;;;13.80;84.92
37200;BME280;23096;50.892;16.746;2023-08-30T02:21:47;98306.58;;;13.81;84.84
37200;BME280;23096;50.892;16.746;2023-08-30T02:24:14;98303.51;;;13.80;84.76
37200;BME280;23096;50.892;16.746;2023-08-30T02:26:39;98300.15;;;13.79;84.79
37200;BME280;23096;50.892;16.746;2023-08-30T02:29:05;98297.61;;;13.78;84.97
37200;BME280;23096;50.892;16.746;2023-08-30T02:31:31;98299.70;;;13.78;84.82
37200;BME280;23096;50.892;16.746;2023-08-30T02:33:57;98299.45;;;13.79;84.93
37200;BME280;23096;50.892;16.746;2023-08-30T02:36:22;98300.03;;;13.78;84.87
37200;BME280;23096;50.892;16.746;2023-08-30T02:38:48;98300.93;;;13.77;84.92
37200;BME280;23096;50.892;16.746;2023-08-30T02:41:14;98298.70;;;13.77;84.92
37200;BME280;23096;50.892;16.746;2023-08-30T02:43:39;98299.71;;;13.77;84.88
37200;BME280;23096;50.892;16.746;2023-08-30T02:46:05;98302.05;;;13.76;84.83
37200;BME280;23096;50.892;16.746;2023-08-30T02:48:31;98303.73;;;13.77;84.93
37200;BME280;23096;50.892;16.746;2023-08-30T02:50:57;98307.83;;;13.78;84.81
37200;BME280;23096;50.892;16.746;2023-08-30T02:53:23;98309.99;;;13.79;84.82
37200;BME280;23096;50.892;16.746;2023-08-30T02:55:49;98309.79;;;13.79;84.80
37200;BME280;23096;50.892;16.746;2023-08-30T02:58:14;98303.36;;;13.80;84.93
37200;BME280;23096;50.892;16.746;2023-08-30T03:00:40;98300.95;;;13.80;84.93
37200;BME280;23096;50.892;16.746;2023-08-30T03:03:07;98296.64;;;13.80;84.80
37200;BME280;23096;50.892;16.746;2023-08-30T03:05:32;98294.42;;;13.79;84.88
37200;BME280;23096;50.892;16.746;2023-08-30T03:07:59;98294.91;;;13.80;84.81
37200;BME280;23096;50.892;16.746;2023-08-30T03:10:25;98290.10;;;13.79;84.75
37200;BME280;23096;50.892;16.746;2023-08-30T03:12:51;98287.55;;;13.79;84.86
37200;BME280;23096;50.892;16.746;2023-08-30T03:15:17;98291.64;;;13.80;84.93
37200;BME280;23096;50.892;16.746;2023-08-30T03:17:43;98293.85;;;13.80;85.02
37200;BME280;23096;50.892;16.746;2023-08-30T03:20:09;98292.66;;;13.80;84.91
37200;BME280;23096;50.892;16.746;2023-08-30T03:22:35;98292.70;;;13.79;84.91
37200;BME280;23096;50.892;16.746;2023-08-30T03:25:01;98296.16;;;13.79;84.88
37200;BME280;23096;50.892;16.746;2023-08-30T03:27:29;98296.86;;;13.79;84.78
37200;BME280;23096;50.892;16.746;2023-08-30T03:29:55;98295.98;;;13.79;84.89
37200;BME280;23096;50.892;16.746;2023-08-30T03:32:21;98295.09;;;13.80;84.95
37200;BME280;23096;50.892;16.746;2023-08-30T03:34:48;98294.76;;;13.79;84.85
37200;BME280;23096;50.892;16.746;2023-08-30T03:37:14;98290.78;;;13.79;84.83
37200;BME280;23096;50.892;16.746;2023-08-30T12:59:36;98429.98;;;15.30;81.92
37200;BME280;23096;50.892;16.746;2023-08-30T13:02:02;98432.92;;;15.27;81.79
37200;BME280;23096;50.892;16.746;2023-08-30T13:04:27;98427.96;;;15.24;81.83
37200;BME280;23096;50.892;16.746;2023-08-30T13:06:53;98426.52;;;15.25;81.88
37200;BME280;23096;50.892;16.746;2023-08-30T13:09:18;98426.60;;;15.26;81.82
37200;BME280;23096;50.892;16.746;2023-08-30T13:11:44;98426.98;;;15.28;81.68
37200;BME280;23096;50.892;16.746;2023-08-30T13:14:10;98419.35;;;15.31;81.76
37200;BME280;23096;50.892;16.746;2023-08-30T13:16:36;98417.34;;;15.36;81.91
37200;BME280;23096;50.892;16.746;2023-08-30T13:19:01;98419.63;;;15.40;81.81
37200;BME280;23096;50.892;16.746;2023-08-30T13:21:28;98419.01;;;15.45;81.88
37200;BME280;23096;50.892;16.746;2023-08-30T13:23:55;98417.20;;;15.51;81.79
37200;BME280;23096;50.892;16.746;2023-08-30T13:26:21;98412.94;;;15.58;81.88
37200;BME280;23096;50.892;16.746;2023-08-30T13:28:47;98412.35;;;15.64;81.74
37200;BME280;23096;50.892;16.746;2023-08-30T13:31:13;98415.05;;;15.68;81.79
37200;BME280;23096;50.892;16.746;2023-08-30T13:33:40;98414.14;;;15.68;81.62
37200;BME280;23096;50.892;16.746;2023-08-30T13:36:05;98421.20;;;15.69;81.52
37200;BME280;23096;50.892;16.746;2023-08-30T13:38:31;98422.70;;;15.67;81.40
37200;BME280;23096;50.892;16.746;2023-08-30T13:41:00;98422.23;;;15.64;81.30
37200;BME280;23096;50.892;16.746;2023-08-30T13:43:25;98424.56;;;15.60;81.10
37200;BME280;23096;50.892;16.746;2023-08-30T13:45:58;98423.45;;;15.56;81.24
37200;BME280;23096;50.892;16.746;2023-08-30T13:48:24;98420.05;;;15.52;81.24
37200;BME280;23096;50.892;16.746;2023-08-30T13:50:50;98421.21;;;15.50;81.25
37200;BME280;23096;50.892;16.746;2023-08-30T13:53:16;98418.36;;;15.49;80.98
37200;BME280;23096;50.892;16.746;2023-08-30T13:55:48;98419.82;;;15.48;81.05
37200;BME280;23096;50.892;16.746;2023-08-30T13:58:16;98420.81;;;15.46;81.21
37200;BME280;23096;50.892;16.746;2023-08-30T14:00:44;98419.61;;;15.46;81.08
37200;BME280;23096;50.892;16.746;2023-08-30T14:03:10;98418.08;;;15.45;81.00
37200;BME280;23096;50.892;16.746;2023-08-30T14:05:37;98418.38;;;15.46;81.07
37200;BME280;23096;50.892;16.746;2023-08-30T14:08:06;98416.52;;;15.48;81.12
37200;BME280;23096;50.892;16.746;2023-08-30T14:10:33;98418.86;;;15.49;81.19
37200;BME280;23096;50.892;16.746;2023-08-30T14:12:58;98417.79;;;15.50;81.05
37200;BME280;23096;50.892;16.746;2023-08-30T14:15:24;98425.00;;;15.48;81.04
37200;BME280;23096;50.892;16.746;2023-08-30T14:17:49;98422.98;;;15.47;80.96
37200;BME280;23096;50.892;16.746;2023-08-30T14:20:15;98424.83;;;15.43;80.88
37200;BME280;23096;50.892;16.746;2023-08-30T14:22:42;98427.61;;;15.40;80.88
37200;BME280;23096;50.892;16.746;2023-08-30T14:25:11;98432.10;;;15.37;80.71
37200;BME280;23096;50.892;16.746;2023-08-30T14:27:39;98429.30;;;15.35;80.65
37200;BME280;23096;50.892;16.746;2023-08-30T14:30:08;98428.79;;;15.32;80.72
37200;BME280;23096;50.892;16.746;2023-08-30T14:32:34;98430.05;;;15.29;80.69
37200;BME280;23096;50.892;16.746;2023-08-30T14:34:59;98434.64;;;15.27;80.55
37200;BME280;23096;50.892;16.746;2023-08-30T14:37:25;98434.47;;;15.27;80.61
37200;BME280;23096;50.892;16.746;2023-08-30T14:39:53;98438.50;;;15.29;80.74
37200;BME280;23096;50.892;16.746;2023-08-30T14:42:18;98433.16;;;15.31;80.70
37200;BME280;23096;50.892;16.746;2023-08-30T14:44:44;98436.97;;;15.34;80.74
37200;BME280;23096;50.892;16.746;2023-08-30T14:47:09;98436.66;;;15.36;80.68
37200;BME280;23096;50.892;16.746;2023-08-30T14:49:35;98439.09;;;15.39;80.81
37200;BME280;23096;50.892;16.746;2023-08-30T14:52:00;98442.85;;;15.40;80.68
37200;BME280;23096;50.892;16.746;2023-08-30T14:54:26;98444.96;;;15.42;80.81
37200;BME280;23096;50.892;16.746;2023-08-30T14:56:51;98443.70;;;15.43;80.83
37200;BME280;23096;50.892;16.746;2023-08-30T14:59:17;98445.01;;;15.44;80.82
37200;BME280;23096;50.892;16.746;2023-08-30T15:01:42;98442.37;;;15.44;80.79
37200;BME280;23096;50.892;16.746;2023-08-30T15:04:08;98439.19;;;15.45;80.85
37200;BME280;23096;50.892;16.746;2023-08-30T15:06:33;98440.25;;;15.48;80.75
37200;BME280;23096;50.892;16.746;2023-08-30T15:08:59;98441.13;;;15.50;80.68
37200;BME280;23096;50.892;16.746;2023-08-30T15:11:25;98441.36;;;15.52;80.60
37200;BME280;23096;50.892;16.746;2023-08-30T15:13:51;98436.56;;;15.54;80.83
37200;BME280;23096;50.892;16.746;2023-08-30T15:16:16;98433.18;;;15.56;80.75
37200;BME280;23096;50.892;16.746;2023-08-30T15:18:42;98435.53;;;15.57;80.76
37200;BME280;23096;50.892;16.746;2023-08-30T15:21:08;98428.71;;;15.57;80.67
37200;BME280;23096;50.892;16.746;2023-08-30T15:23:33;98429.73;;;15.58;80.81
37200;BME280;23096;50.892;16.746;2023-08-30T15:26:03;98429.70;;;15.58;80.78
37200;BME280;23096;50.892;16.746;2023-08-30T15:28:29;98429.01;;;15.59;80.82
37200;BME280;23096;50.892;16.746;2023-08-30T15:30:54;98428.14;;;15.59;80.89
37200;BME280;23096;50.892;16.746;2023-08-30T15:33:22;98428.90;;;15.60;80.81
37200;BME280;23096;50.892;16.746;2023-08-30T15:35:50;98429.64;;;15.62;80.71
37200;BME280;23096;50.892;16.746;2023-08-30T15:38:15;98430.77;;;15.61;80.47
37200;BME280;23096;50.892;16.746;2023-08-30T15:40:41;98433.63;;;15.59;80.68
37200;BME280;23096;50.892;16.746;2023-08-30T15:43:07;98441.29;;;15.59;80.59
37200;BME280;23096;50.892;16.746;2023-08-30T15:45:33;98439.42;;;15.58;80.48
37200;BME280;23096;50.892;16.746;2023-08-30T15:47:59;98438.67;;;15.56;80.35
37200;BME280;23096;50.892;16.746;2023-08-30T15:50:24;98437.11;;;15.57;80.22
37200;BME280;23096;50.892;16.746;2023-08-30T15:52:50;98434.61;;;15.55;80.48
37200;BME280;23096;50.892;16.746;2023-08-30T15:55:15;98434.82;;;15.54;80.26
37200;BME280;23096;50.892;16.746;2023-08-30T15:57:41;98436.11;;;15.53;80.28
37200;BME280;23096;50.892;16.746;2023-08-30T16:00:07;98439.03;;;15.53;80.33
37200;BME280;23096;50.892;16.746;2023-08-30T16:02:33;98440.82;;;15.52;80.50
37200;BME280;23096;50.892;16.746;2023-08-30T16:04:59;98442.70;;;15.52;80.38
37200;BME280;23096;50.892;16.746;2023-08-30T16:07:24;98446.00;;;15.52;80.18
37200;BME280;23096;50.892;16.746;2023-08-30T16:09:50;98442.91;;;15.52;80.33
37200;BME280;23096;50.892;16.746;2023-08-30T16:12:16;98444.43;;;15.52;80.24
37200;BME280;23096;50.892;16.746;2023-08-30T16:14:42;98445.68;;;15.52;80.13
37200;BME280;23096;50.892;16.746;2023-08-30T16:17:08;98444.41;;;15.53;80.04
37200;BME280;23096;50.892;16.746;2023-08-30T16:19:33;98446.46;;;15.53;80.09
37200;BME280;23096;50.892;16.746;2023-08-30T16:22:01;98446.48;;;15.53;80.08
37200;BME280;23096;50.892;16.746;2023-08-30T16:24:27;98446.08;;;15.54;80.22
37200;BME280;23096;50.892;16.746;2023-08-30T16:26:53;98446.77;;;15.54;80.11
37200;BME280;23096;50.892;16.746;2023-08-30T16:29:23;98452.11;;;15.55;80.06
37200;BME280;23096;50.892;16.746;2023-08-30T16:31:49;98458.30;;;15.55;80.15
37200;BME280;23096;50.892;16.746;2023-08-30T16:34:18;98453.80;;;15.55;79.98
37200;BME280;23096;50.892;16.746;2023-08-30T16:36:45;98455.68;;;15.56;79.92
37200;BME280;23096;50.892;16.746;2023-08-30T16:39:11;98456.64;;;15.57;79.92
37200;BME280;23096;50.892;16.746;2023-08-30T16:41:36;98455.23;;;15.57;80.04
37200;BME280;23096;50.892;16.746;2023-08-30T16:44:02;98456.25;;;15.58;79.98
37200;BME280;23096;50.892;16.746;2023-08-30T16:46:28;98461.57;;;15.58;79.88
37200;BME280;23096;50.892;16.746;2023-08-30T16:48:56;98461.52;;;15.59;79.92
37200;BME280;23096;50.892;16.746;2023-08-30T16:51:22;98458.91;;;15.59;79.90
37200;BME280;23096;50.892;16.746;2023-08-30T16:53:47;98459.92;;;15.60;80.00
37200;BME280;23096;50.892;16.746;2023-08-30T16:56:13;98459.27;;;15.59;79.86
37200;BME280;23096;50.892;16.746;2023-08-30T16:58:41;98462.27;;;15.58;79.85
37200;BME280;23096;50.892;16.746;2023-08-30T17:01:09;98459.04;;;15.57;79.79
37200;BME280;23096;50.892;16.746;2023-08-30T17:03:35;98461.55;;;15.56;79.96
37200;BME280;23096;50.892;16.746;2023-08-30T17:06:00;98464.03;;;15.55;80.05
37200;BME280;23096;50.892;16.746;2023-08-30T17:08:31;98467.69;;;15.54;79.93
37200;BME280;23096;50.892;16.746;2023-08-30T17:11:03;98471.38;;;15.53;80.01
37200;BME280;23096;50.892;16.746;2023-08-30T17:13:30;98472.43;;;15.53;80.08
37200;BME280;23096;50.892;16.746;2023-08-30T17:15:58;98471.58;;;15.53;80.12
37200;BME280;23096;50.892;16.746;2023-08-30T17:18:28;98473.44;;;15.54;79.89
37200;BME280;23096;50.892;16.746;2023-08-30T17:20:54;98474.02;;;15.53;79.87
37200;BME280;23096;50.892;16.746;2023-08-30T17:23:24;98479.27;;;15.51;79.89
37200;BME280;23096;50.892;16.746;2023-08-30T17:25:50;98481.70;;;15.52;80.06
37200;BME280;23096;50.892;16.746;2023-08-30T17:28:18;98479.59;;;15.52;79.95
37200;BME280;23096;50.892;16.746;2023-08-30T17:30:45;98479.92;;;15.52;79.81
37200;BME280;23096;50.892;16.746;2023-08-30T17:33:11;98484.64;;;15.51;79.88
37200;BME280;23096;50.892;16.746;2023-08-30T17:35:36;98486.91;;;15.51;79.81
37200;BME280;23096;50.892;16.746;2023-08-30T17:38:02;98479.71;;;15.47;79.81
37200;BME280;23096;50.892;16.746;2023-08-30T17:40:31;98485.08;;;15.47;79.80
37200;BME280;23096;50.892;16.746;2023-08-30T17:42:57;98485.79;;;15.47;80.02
37200;BME280;23096;50.892;16.746;2023-08-30T17:45:23;98479.78;;;15.46;79.93
37200;BME280;23096;50.892;16.746;2023-08-30T17:47:49;98480.89;;;15.45;79.87
37200;BME280;23096;50.892;16.746;2023-08-30T17:50:15;98478.10;;;15.46;80.01
37200;BME280;23096;50.892;16.746;2023-08-30T17:52:40;98478.73;;;15.47;79.97
37200;BME280;23096;50.892;16.746;2023-08-30T17:55:07;98479.27;;;15.46;79.85
37200;BME280;23096;50.892;16.746;2023-08-30T17:57:32;98477.34;;;15.47;80.12
37200;BME280;23096;50.892;16.746;2023-08-30T18:00:00;98476.98;;;15.47;79.94
37200;BME280;23096;50.892;16.746;2023-08-30T18:02:25;98477.17;;;15.47;80.05
37200;BME280;23096;50.892;16.746;2023-08-30T18:04:51;98480.49;;;15.46;79.81
37200;BME280;23096;50.892;16.746;2023-08-30T18:07:17;98477.94;;;15.46;79.84
37200;BME280;23096;50.892;16.746;2023-08-30T18:09:42;98480.36;;;15.46;80.01
37200;BME280;23096;50.892;16.746;2023-08-30T18:12:08;98480.26;;;15.45;79.79
37200;BME280;23096;50.892;16.746;2023-08-30T18:14:34;98478.90;;;15.44;79.84
37200;BME280;23096;50.892;16.746;2023-08-30T18:16:59;98476.58;;;15.43;79.89
37200;BME280;23096;50.892;16.746;2023-08-30T18:19:25;98476.82;;;15.41;79.97
37200;BME280;23096;50.892;16.746;2023-08-30T18:21:51;98475.33;;;15.41;80.02
37200;BME280;23096;50.892;16.746;2023-08-30T18:24:20;98468.92;;;15.40;79.92
37200;BME280;23096;50.892;16.746;2023-08-30T18:26:47;98467.24;;;15.40;79.98
37200;BME280;23096;50.892;16.746;2023-08-30T18:29:13;98467.09;;;15.39;79.89
37200;BME280;23096;50.892;16.746;2023-08-30T18:31:40;98471.09;;;15.39;79.98
37200;BME280;23096;50.892;16.746;2023-08-30T18:34:06;98472.02;;;15.38;79.74
37200;BME280;23096;50.892;16.746;2023-08-30T18:36:32;98472.75;;;15.38;79.83
37200;BME280;23096;50.892;16.746;2023-08-30T18:38:57;98471.20;;;15.38;79.88
37200;BME280;23096;50.892;16.746;2023-08-30T18:41:23;98474.00;;;15.37;79.84
37200;BME280;23096;50.892;16.746;2023-08-30T18:43:49;98476.95;;;15.37;79.84
37200;BME280;23096;50.892;16.746;2023-08-30T18:46:17;98479.59;;;15.36;79.88
37200;BME280;23096;50.892;16.746;2023-08-30T18:48:47;98484.23;;;15.37;79.95
37200;BME280;23096;50.892;16.746;2023-08-30T18:51:13;98487.02;;;15.37;79.88
37200;BME280;23096;50.892;16.746;2023-08-30T18:53:42;98485.16;;;15.36;79.72
37200;BME280;23096;50.892;16.746;2023-08-30T18:56:08;98486.84;;;15.36;79.64
37200;BME280;23096;50.892;16.746;2023-08-30T18:58:34;98484.44;;;15.36;79.73
37200;BME280;23096;50.892;16.746;2023-08-30T19:01:00;98481.73;;;15.35;79.87
37200;BME280;23096;50.892;16.746;2023-08-30T19:03:27;98488.70;;;15.34;79.79
37200;BME280;23096;50.892;16.746;2023-08-30T19:05:53;98486.98;;;15.34;79.57
37200;BME280;23096;50.892;16.746;2023-08-30T19:08:18;98488.69;;;15.34;79.63
37200;BME280;23096;50.892;16.746;2023-08-30T19:10:44;98486.83;;;15.34;79.62
37200;BME280;23096;50.892;16.746;2023-08-30T19:13:11;98486.98;;;15.34;79.38
37200;BME280;23096;50.892;16.746;2023-08-30T19:15:39;98486.34;;;15.33;79.61
37200;BME280;23096;50.892;16.746;2023-08-30T19:18:07;98487.54;;;15.33;79.65
37200;BME280;23096;50.892;16.746;2023-08-30T19:20:43;98489.48;;;15.33;79.49
37200;BME280;23096;50.892;16.746;2023-08-30T19:23:11;98487.31;;;15.32;79.39
37200;BME280;23096;50.892;16.746;2023-08-30T19:25:37;98482.14;;;15.31;79.37
37200;BME280;23096;50.892;16.746;2023-08-30T19:28:03;98480.98;;;15.30;79.29
37200;BME280;23096;50.892;16.746;2023-08-30T19:30:29;98480.70;;;15.29;79.37
37200;BME280;23096;50.892;16.746;2023-08-30T19:32:57;98482.20;;;15.28;79.33
37200;BME280;23096;50.892;16.746;2023-08-30T19:35:23;98483.45;;;15.27;79.45
37200;BME280;23096;50.892;16.746;2023-08-30T19:37:52;98482.20;;;15.28;79.21
37200;BME280;23096;50.892;16.746;2023-08-30T19:40:18;98481.84;;;15.28;79.18
37200;BME280;23096;50.892;16.746;2023-08-30T19:42:43;98484.77;;;15.28;79.24
37200;BME280;23096;50.892;16.746;2023-08-30T19:45:11;98481.27;;;15.29;79.23
37200;BME280;23096;50.892;16.746;2023-08-30T19:47:39;98482.63;;;15.29;79.03
37200;BME280;23096;50.892;16.746;2023-08-30T19:50:06;98478.46;;;15.29;78.95
37200;BME280;23096;50.892;16.746;2023-08-30T19:52:32;98478.81;;;15.29;79.08
37200;BME280;23096;50.892;16.746;2023-08-30T19:54:58;98475.16;;;15.29;78.90
37200;BME280;23096;50.892;16.746;2023-08-30T19:57:23;98477.04;;;15.30;78.79
37200;BME280;23096;50.892;16.746;2023-08-30T19:59:52;98473.90;;;15.30;78.76
37200;BME280;23096;50.892;16.746;2023-08-30T20:02:19;98470.23;;;15.30;78.64
37200;BME280;23096;50.892;16.746;2023-08-30T20:04:44;98467.07;;;15.32;78.66
37200;BME280;23096;50.892;16.746;2023-08-30T20:07:10;98467.92;;;15.32;78.60
37200;BME280;23096;50.892;16.746;2023-08-30T20:09:41;98469.63;;;15.32;78.48
37200;BME280;23096;50.892;16.746;2023-08-30T20:12:07;98469.14;;;15.32;78.51
37200;BME280;23096;50.892;16.746;2023-08-30T20:14:35;98470.34;;;15.32;78.51
37200;BME280;23096;50.892;16.746;2023-08-30T20:17:00;98467.08;;;15.31;78.24
37200;BME280;23096;50.892;16.746;2023-08-30T20:19:26;98467.58;;;15.31;78.33
37200;BME280;23096;50.892;16.746;2023-08-30T20:21:54;98469.59;;;15.32;78.24
37200;BME280;23096;50.892;16.746;2023-08-30T20:24:19;98473.73;;;15.33;78.29
37200;BME280;23096;50.892;16.746;2023-08-30T20:26:45;98476.68;;;15.33;78.21
37200;BME280;23096;50.892;16.746;2023-08-30T20:29:13;98477.86;;;15.33;78.17
37200;BME280;23096;50.892;16.746;2023-08-30T20:31:41;98474.60;;;15.33;78.16
37200;BME280;23096;50.892;16.746;2023-08-30T20:34:07;98471.04;;;15.32;78.02
37200;BME280;23096;50.892;16.746;2023-08-30T20:36:34;98469.70;;;15.31;78.04
37200;BME280;23096;50.892;16.746;2023-08-30T20:39:00;98469.90;;;15.30;77.90
37200;BME280;23096;50.892;16.746;2023-08-30T20:41:28;98470.09;;;15.30;77.94
37200;BME280;23096;50.892;16.746;2023-08-30T20:43:54;98470.98;;;15.30;77.84
37200;BME280;23096;50.892;16.746;2023-08-30T20:46:22;98470.84;;;15.29;77.70
37200;BME280;23096;50.892;16.746;2023-08-30T20:48:48;98473.34;;;15.28;77.72
37200;BME280;23096;50.892;16.746;2023-08-30T20:51:13;98469.60;;;15.27;77.66
37200;BME280;23096;50.892;16.746;2023-08-30T20:53:39;98472.79;;;15.26;77.63
37200;BME280;23096;50.892;16.746;2023-08-30T20:56:10;98474.70;;;15.25;77.38
37200;BME280;23096;50.892;16.746;2023-08-30T20:58:40;98477.67;;;15.25;77.34
37200;BME280;23096;50.892;16.746;2023-08-30T21:01:08;98478.38;;;15.25;77.28
37200;BME280;23096;50.892;16.746;2023-08-30T21:03:34;98478.39;;;15.25;77.25
37200;BME280;23096;50.892;16.746;2023-08-30T21:06:00;98477.38;;;15.24;77.17
37200;BME280;23096;50.892;16.746;2023-08-30T21:08:25;98476.85;;;15.25;77.28
37200;BME280;23096;50.892;16.746;2023-08-30T21:10:51;98478.21;;;15.25;77.20
37200;BME280;23096;50.892;16.746;2023-08-30T21:13:17;98476.08;;;15.26;76.97
37200;BME280;23096;50.892;16.746;2023-08-30T21:15:43;98479.59;;;15.25;76.99
37200;BME280;23096;50.892;16.746;2023-08-30T21:18:09;98477.88;;;15.25;77.19
37200;BME280;23096;50.892;16.746;2023-08-30T21:20:35;98482.83;;;15.25;77.06
37200;BME280;23096;50.892;16.746;2023-08-30T21:23:01;98488.34;;;15.26;76.94
37200;BME280;23096;50.892;16.746;2023-08-30T21:39:37;98492.04;;;15.58;76.07
37200;BME280;23096;50.892;16.746;2023-08-30T21:42:03;98501.56;;;15.69;75.64
37200;BME280;23096;50.892;16.746;2023-08-30T21:44:29;98502.58;;;15.66;75.85
37200;BME280;23096;50.892;16.746;2023-08-30T21:46:54;98502.52;;;15.64;75.77
37200;BME280;23096;50.892;16.746;2023-08-30T21:49:20;98500.63;;;15.62;75.75
37200;BME280;23096;50.892;16.746;2023-08-30T21:51:45;98502.83;;;15.60;75.70
37200;BME280;23096;50.892;16.746;2023-08-30T21:54:13;98510.19;;;15.58;75.57
37200;BME280;23096;50.892;16.746;2023-08-30T21:56:39;98511.61;;;15.55;75.69
37200;BME280;23096;50.892;16.746;2023-08-30T21:59:04;98507.55;;;15.53;75.54
37200;BME280;23096;50.892;16.746;2023-08-30T22:01:30;98501.88;;;15.53;75.56
37200;BME280;23096;50.892;16.746;2023-08-30T22:03:56;98497.88;;;15.53;75.48
37200;BME280;23096;50.892;16.746;2023-08-30T22:06:21;98498.99;;;15.52;75.47
37200;BME280;23096;50.892;16.746;2023-08-30T22:08:47;98501.41;;;15.52;75.52
37200;BME280;23096;50.892;16.746;2023-08-30T22:11:12;98501.36;;;15.52;75.50
37200;BME280;23096;50.892;16.746;2023-08-30T22:13:38;98500.52;;;15.52;75.35
37200;BME280;23096;50.892;16.746;2023-08-30T22:16:04;98500.98;;;15.53;75.28
37200;BME280;23096;50.892;16.746;2023-08-30T22:18:29;98496.41;;;15.54;75.13
37200;BME280;23096;50.892;16.746;2023-08-30T22:20:55;98499.98;;;15.56;75.18
37200;BME280;23096;50.892;16.746;2023-08-30T22:23:21;98498.02;;;15.56;75.21
37200;BME280;23096;50.892;16.746;2023-08-30T22:25:48;98496.69;;;15.56;75.00